createdAt,value
2023-01-26T00:01:50.508Z,7.1
2023-01-26T00:06:56.895Z,7.1
2023-01-26T00:12:03.258Z,7.1
2023-01-26T00:17:09.599Z,7.1
2023-01-26T00:22:15.986Z,7.1
2023-01-26T00:27:22.329Z,7
2023-01-26T00:32:30.253Z,7
2023-01-26T00:37:36.655Z,7
2023-01-26T00:42:42.964Z,7
2023-01-26T00:47:49.314Z,7
2023-01-26T00:52:55.711Z,7
2023-01-26T00:58:02.043Z,7
2023-01-26T01:03:08.391Z,7
2023-01-26T01:08:14.781Z,7
2023-01-26T01:13:21.093Z,7
2023-01-26T01:18:27.470Z,7
2023-01-26T01:23:33.852Z,7
2023-01-26T01:28:40.197Z,7
2023-01-26T01:33:46.541Z,7
2023-01-26T01:38:52.928Z,7
2023-01-26T01:43:59.256Z,7
2023-01-26T01:49:05.606Z,7
2023-01-26T01:54:11.973Z,7
2023-01-26T01:59:18.318Z,7
2023-01-26T02:04:24.664Z,7
2023-01-26T02:09:31.044Z,7
2023-01-26T02:19:45.334Z,7
2023-01-26T02:24:51.710Z,7
2023-01-26T02:29:58.050Z,7
2023-01-26T02:35:04.411Z,7
2023-01-26T02:40:11.220Z,7
2023-01-26T02:45:17.107Z,7
2023-01-26T02:50:23.452Z,7
2023-01-26T02:55:29.840Z,7
2023-01-26T03:00:36.223Z,7
2023-01-26T03:05:42.569Z,7
2023-01-26T03:10:48.913Z,7
2023-01-26T03:15:55.298Z,7
2023-01-26T03:21:01.596Z,7
2023-01-26T03:26:07.981Z,7
2023-01-26T03:31:14.368Z,6.9
2023-01-26T03:36:20.648Z,6.9
2023-01-26T03:41:27.027Z,6.9
2023-01-26T03:46:33.477Z,6.9
2023-01-26T03:51:39.738Z,6.9
2023-01-26T03:56:46.101Z,7
2023-01-26T04:01:52.469Z,6.9
2023-01-26T04:06:58.811Z,7
2023-01-26T04:12:06.762Z,6.9
2023-01-26T04:17:13.094Z,6.9
2023-01-26T04:22:19.433Z,6.9
2023-01-26T04:27:27.443Z,6.9
2023-01-26T04:32:33.799Z,6.9
2023-01-26T04:37:40.121Z,6.9
2023-01-26T04:42:46.532Z,6.9
2023-01-26T04:47:52.857Z,6.8
2023-01-26T04:52:59.192Z,6.8
2023-01-26T04:58:05.580Z,6.8
2023-01-26T05:03:11.907Z,6.8
2023-01-26T05:08:18.258Z,6.8
2023-01-26T05:13:24.666Z,6.9
2023-01-26T05:18:30.960Z,6.9
2023-01-26T05:23:37.366Z,6.9
2023-01-26T05:28:43.696Z,7
2023-01-26T05:33:50.017Z,6.9
2023-01-26T05:38:56.377Z,6.9
2023-01-26T05:44:02.766Z,7
2023-01-26T05:49:09.118Z,7
2023-01-26T05:54:15.453Z,7
2023-01-26T05:59:21.844Z,7
2023-01-26T06:04:28.219Z,7.1
2023-01-26T06:09:34.531Z,7.1
2023-01-26T06:14:40.881Z,7.2
2023-01-26T06:19:47.235Z,7.2
2023-01-26T06:35:09.523Z,7.2
2023-01-26T06:40:15.844Z,7.2
2023-01-26T06:45:22.189Z,7.2
2023-01-26T06:50:28.640Z,7.1
2023-01-26T06:55:34.916Z,7.1
2023-01-26T07:00:41.251Z,7.1
2023-01-26T07:05:47.663Z,7.1
2023-01-26T07:10:53.974Z,7.1
2023-01-26T07:16:00.372Z,7.2
2023-01-26T07:21:06.723Z,7.2
2023-01-26T07:26:13.078Z,7.2
2023-01-26T07:31:21.241Z,7.1
2023-01-26T07:36:27.372Z,7.2
2023-01-26T07:41:33.727Z,7.2
2023-01-26T07:46:40.163Z,7.3
2023-01-26T07:51:46.452Z,7.2
2023-01-26T07:56:52.778Z,7.2
2023-01-26T08:01:59.186Z,7.2
2023-01-26T08:07:07.128Z,7.2
2023-01-26T08:12:13.434Z,7.2
2023-01-26T08:17:19.817Z,7.2
2023-01-26T08:22:26.211Z,7.2
2023-01-26T08:27:32.501Z,7.2
2023-01-26T08:32:38.903Z,7.2
2023-01-26T08:37:46.834Z,7.2
2023-01-26T08:42:53.169Z,7.3
2023-01-26T08:47:59.525Z,7.3
2023-01-26T08:53:05.915Z,7.3
2023-01-26T08:58:12.252Z,7.3
2023-01-26T09:03:18.676Z,7.3
2023-01-26T09:08:24.974Z,7.3
2023-01-26T09:13:31.324Z,7.3
2023-01-26T09:18:37.678Z,7.3
2023-01-26T09:23:44.045Z,7.3
2023-01-26T09:28:50.375Z,7.3
2023-01-26T09:33:56.722Z,7.3
2023-01-26T09:39:03.114Z,7.4
2023-01-26T09:44:09.437Z,7.4
2023-01-26T09:49:15.778Z,7.4
2023-01-26T09:54:22.182Z,7.4
2023-01-26T09:59:28.535Z,7.3
2023-01-26T10:04:34.846Z,7.5
2023-01-26T10:09:45.180Z,7.4
2023-01-26T10:14:49.165Z,7.2
2023-01-26T10:19:55.505Z,7.2
2023-01-26T10:25:01.911Z,7.3
2023-01-26T10:30:08.250Z,7.3
2023-01-26T10:35:14.606Z,7.4
2023-01-26T10:40:20.992Z,7.4
2023-01-26T10:45:27.300Z,7.4
2023-01-26T10:50:33.673Z,7.4
2023-01-26T10:55:40.036Z,7.4
2023-01-26T11:00:46.367Z,7.4
2023-01-26T11:05:52.725Z,7.5
2023-01-26T11:10:59.121Z,7.5
2023-01-26T11:16:05.526Z,7.5
2023-01-26T11:21:11.824Z,7.5
2023-01-26T11:26:18.188Z,7.6
2023-01-26T11:31:26.102Z,7.6
2023-01-26T11:36:32.455Z,7.6
2023-01-26T11:41:38.830Z,7.6
2023-01-26T11:46:45.187Z,7.6
2023-01-26T11:51:51.507Z,7.6
2023-01-26T11:56:57.901Z,7.6
2023-01-26T12:02:04.281Z,7.6
2023-01-26T12:07:10.566Z,7.6
2023-01-26T12:12:16.976Z,7.6
2023-01-26T12:17:23.291Z,7.6
2023-01-26T12:22:29.713Z,7.6
2023-01-26T12:27:36.031Z,7.6
2023-01-26T12:32:42.344Z,7.6
2023-01-26T12:37:48.715Z,7.6
2023-01-26T12:42:55.141Z,7.7
2023-01-26T12:48:01.418Z,7.7
2023-01-26T12:53:07.765Z,7.7
2023-01-26T12:58:14.168Z,7.7
2023-01-26T13:03:20.502Z,7.7
2023-01-26T13:08:26.879Z,7.6
2023-01-26T13:13:33.226Z,7.6
2023-01-26T13:18:39.568Z,7.6
2023-01-26T13:23:45.958Z,7.7
2023-01-26T13:28:52.312Z,7.7
2023-01-26T13:33:58.624Z,7.7
2023-01-26T13:39:04.995Z,7.6
2023-01-26T13:44:11.353Z,7.7
2023-01-26T13:49:17.817Z,7.7
2023-01-26T13:54:24.050Z,7.7
2023-01-26T13:59:30.433Z,7.7
2023-01-26T14:04:36.765Z,7.7
2023-01-26T14:09:43.114Z,7.7
2023-01-26T14:14:49.500Z,7.7
2023-01-26T14:19:55.833Z,7.6
2023-01-26T14:25:02.212Z,7.6
2023-01-26T14:30:08.575Z,7.6
2023-01-26T14:35:14.911Z,7.5
2023-01-26T14:40:21.236Z,7.6
2023-01-26T14:45:27.626Z,7.6
2023-01-26T14:50:33.991Z,7.6
2023-01-26T14:55:40.319Z,7.6
2023-01-26T15:00:46.769Z,7.5
2023-01-26T15:05:53.043Z,7.5
2023-01-26T15:10:59.400Z,7.5
2023-01-26T15:16:05.823Z,7.5
2023-01-26T15:21:12.100Z,7.5
2023-01-26T15:26:18.469Z,7.5
2023-01-26T15:31:25.013Z,7.5
2023-01-26T15:36:31.152Z,7.5
2023-01-26T15:41:37.521Z,7.5
2023-01-26T15:46:45.600Z,7.5
2023-01-26T15:51:53.996Z,7.5
2023-01-26T15:56:58.174Z,7.5
2023-01-26T16:02:04.587Z,7.5
2023-01-26T16:07:10.884Z,7.5
2023-01-26T16:12:30.578Z,7.5
2023-01-26T16:17:23.643Z,7.5
2023-01-26T16:22:30.025Z,7.5
2023-01-26T16:27:36.308Z,7.4
2023-01-26T16:32:44.284Z,7.4
2023-01-26T16:37:50.622Z,7.3
2023-01-26T16:42:56.967Z,7.3
2023-01-26T16:48:03.355Z,7.3
2023-01-26T16:53:09.701Z,7.4
2023-01-26T16:58:16.071Z,7.3
2023-01-26T17:03:22.437Z,7.3
2023-01-26T17:08:28.775Z,7.3
2023-01-26T17:13:35.139Z,7.3
2023-01-26T17:18:41.500Z,7.3
2023-01-26T17:23:47.834Z,7.3
2023-01-26T17:28:54.187Z,7.3
2023-01-26T17:34:00.547Z,7.3
2023-01-26T17:39:06.906Z,7.3
2023-01-26T17:44:13.253Z,7.3
2023-01-26T17:49:19.639Z,7.3
2023-01-26T17:54:27.561Z,7.3
2023-01-26T17:59:33.915Z,7.3
2023-01-26T18:04:40.289Z,7.3
2023-01-26T18:09:46.669Z,7.3
2023-01-26T18:14:55.062Z,7.3
2023-01-26T18:19:59.377Z,7.3
2023-01-26T18:25:05.683Z,7.3
2023-01-26T18:30:12.058Z,7.3
2023-01-26T18:35:18.460Z,7.3
2023-01-26T18:40:24.764Z,7.3
2023-01-26T18:45:31.177Z,7.3
2023-01-26T18:50:37.579Z,7.3
2023-01-26T18:55:45.432Z,7.3
2023-01-26T19:00:51.834Z,7.3
2023-01-26T19:05:58.173Z,7.3
2023-01-26T19:11:04.530Z,7.3
2023-01-26T19:16:10.920Z,7.3
2023-01-26T19:21:17.288Z,7.3
2023-01-26T19:26:23.578Z,7.3
2023-01-26T19:31:29.945Z,7.3
2023-01-26T19:36:37.922Z,7.3
2023-01-26T19:41:44.256Z,7.3
2023-01-26T19:46:50.682Z,7.3
2023-01-26T19:51:56.983Z,7.3
2023-01-26T19:57:03.301Z,7.3
2023-01-26T20:02:09.698Z,7.3
2023-01-26T20:07:16.029Z,7.3
2023-01-26T20:12:22.366Z,7.3
2023-01-26T20:17:28.713Z,7.3
2023-01-26T20:22:35.128Z,7.3
2023-01-26T20:27:41.432Z,7.3
2023-01-26T20:32:47.794Z,7.3
2023-01-26T20:37:54.171Z,7.3
2023-01-26T20:43:00.502Z,7.3
2023-01-26T20:48:06.848Z,7.3
2023-01-26T20:58:21.247Z,7.3
2023-01-26T21:03:27.527Z,7.3
2023-01-26T21:08:33.888Z,7.3
2023-01-26T21:13:40.263Z,7.3
2023-01-26T21:18:46.652Z,7.3
2023-01-26T21:23:53.019Z,7.3
2023-01-26T21:28:59.329Z,7.3
2023-01-26T21:34:05.663Z,7.3
2023-01-26T21:39:12.007Z,7.3
2023-01-26T21:44:18.405Z,7.3
2023-01-26T21:49:24.721Z,7.3
2023-01-26T21:54:31.081Z,7.3
2023-01-26T21:59:37.458Z,7.3
2023-01-26T22:04:43.792Z,7.3
2023-01-26T22:09:50.142Z,7.3
2023-01-26T22:14:56.511Z,7.3
2023-01-26T22:20:02.872Z,7.3
2023-01-26T22:25:09.217Z,7.3
2023-01-26T22:30:15.588Z,7.3
2023-01-26T22:35:21.908Z,7.3
2023-01-26T22:40:28.279Z,7.3
2023-01-26T22:45:34.740Z,7.3
2023-01-26T22:50:40.977Z,7.3
2023-01-26T22:55:47.386Z,7.3
2023-01-26T23:00:53.825Z,7.3
2023-01-26T23:06:00.052Z,7.3
2023-01-26T23:11:06.436Z,7.3
2023-01-26T23:16:12.910Z,7.3
2023-01-26T23:21:19.155Z,7.3
2023-01-26T23:26:25.484Z,7.3
2023-01-26T23:31:31.951Z,7.3
2023-01-26T23:36:38.184Z,7.3
2023-01-26T23:41:44.533Z,7.3
2023-01-26T23:46:51.089Z,7.3
2023-01-26T23:51:57.252Z,7.3
2023-01-26T23:57:03.632Z,7.2
